Portada
METAR-TAF:

METAR-TAF

Aeroports :

Castres, França

latitud: 43-33-25N, longitud: 2-17-21E, altitud: 239 m

Observació

L'informe es va fer fa 16 minuts, a les 17:00 UTC
Vent 13 kt del Oest/Nord-Oest
Temperatura 22°C
Humitat 60%
Pressió 1025 hPa
Visibilitat 10 km o més
Cel ennuvolat a una alçada de 3300 ft
Cel ennuvolat a una alçada de 4100 ft
Cel ennuvolat a una alçada de 5200 ft

METAR: LFCK 181700Z AUTO 29013KT 9999 BKN033 BKN041 BKN052 22/14 Q1025 NOSIG

Hora: 19:16 (17:16 UTC)

Pronòstic

L'informe es va fer fa 3 hores i 16 minuts, a les 14:00 UTC
Pronòstic vàlid del 18 a les 15 UTC al 18 a les 24 UTC
Vent 10 kt del Oest/Nord-Oest
Visibilitat 10 km o més
Cel ennuvolat a una alçada de 2500 ft

TAF: LFCK 181400Z 1815/1824 30010KT 9999 BKN025

Observacions i pronòstics meteorològics de més de 4000 aeroports (METAR i TAF).

Les estacions disponibles són els punts grocs i vermells al mapa.

Posi el ratolí al punt desitjat per veure el nom de l'estació.

Feu clic per veure les observacions i els pronòstics meteorològics.

Per canviar el mapa: feu clic els botons verds amb una creu de color negre per apropar; al botó verd amb un guió per allunyar la imatge; o en les fletxes verdes per a mapes adjacents.


METAR-TAF: